createdAt,value
2023-10-06T00:00:35.373Z,102523.91
2023-10-06T00:03:13.484Z,102515.16
2023-10-06T00:05:40.150Z,102517.66
2023-10-06T00:08:31.433Z,102520.56
2023-10-06T00:11:04.397Z,102515.16
2023-10-06T00:13:40.511Z,102506.28
2023-10-06T00:16:08.901Z,102509.88
2023-10-06T00:18:47.616Z,102509.88
2023-10-06T00:21:23.042Z,102503.09
2023-10-06T00:23:50.646Z,102497.13
2023-10-06T00:26:21.110Z,102501.03
2023-10-06T00:28:47.707Z,102505.47
2023-10-06T00:31:15.129Z,102506.59
2023-10-06T00:33:43.695Z,102512.81
2023-10-06T00:36:14.916Z,102512.25
2023-10-06T00:38:55.478Z,102513.22
2023-10-06T00:41:27.811Z,102501.03
2023-10-06T00:43:56.524Z,102506.44
2023-10-06T00:46:23.031Z,102509.22
2023-10-06T00:49:08.147Z,102500.47
2023-10-06T00:51:34.778Z,102507.53
2023-10-06T00:54:01.337Z,102504.09
2023-10-06T00:56:37.446Z,102499.75
2023-10-06T00:59:06.971Z,102495.63
2023-10-06T01:01:38.945Z,102495.63
2023-10-06T01:04:19.778Z,102494.78
2023-10-06T01:06:49.026Z,102486.16
2023-10-06T01:09:17.259Z,102486.16
2023-10-06T01:11:51.655Z,102479.25
2023-10-06T01:14:31.701Z,102469.56
2023-10-06T01:17:26.962Z,102467.06
2023-10-06T01:20:08.423Z,102463.72
2023-10-06T01:22:47.696Z,102463.72
2023-10-06T01:25:26.007Z,102464.84
2023-10-06T01:27:52.785Z,102465.00
2023-10-06T01:30:19.893Z,102459.00
2023-10-06T01:32:56.165Z,102452.19
2023-10-06T01:35:25.151Z,102446.94
2023-10-06T01:38:04.575Z,102447.06
2023-10-06T01:40:31.033Z,102452.47
2023-10-06T01:43:01.730Z,102460.38
2023-10-06T01:45:31.904Z,102456.25
2023-10-06T01:48:13.457Z,102463.44
2023-10-06T01:50:43.378Z,102464.28
2023-10-06T01:53:22.437Z,102467.88
2023-10-06T01:55:53.757Z,102477.44
2023-10-06T01:58:20.461Z,102480.34
2023-10-06T02:00:49.909Z,102485.63
2023-10-06T02:03:19.299Z,102490.03
2023-10-06T02:05:46.002Z,102497.13
2023-10-06T02:08:22.328Z,102491.88
2023-10-06T02:10:54.156Z,102483.13
2023-10-06T02:13:23.637Z,102478.69
2023-10-06T02:16:04.209Z,102480.50
2023-10-06T02:18:39.391Z,102475.38
2023-10-06T02:21:34.337Z,102477.16
2023-10-06T02:24:09.893Z,102472.88
2023-10-06T02:26:38.806Z,102461.50
2023-10-06T02:29:25.815Z,102462.34
2023-10-06T02:31:53.253Z,102458.16
2023-10-06T02:34:47.912Z,102460.78
2023-10-06T02:37:14.557Z,102457.34
2023-10-06T02:39:46.773Z,102457.47
2023-10-06T02:42:16.636Z,102451.38
2023-10-06T02:44:43.608Z,102440.28
2023-10-06T02:47:20.588Z,102435.16
2023-10-06T02:49:52.049Z,102432.53
2023-10-06T02:52:34.326Z,102424.75
2023-10-06T02:55:03.759Z,102423.09
2023-10-06T02:57:38.524Z,102416.16
2023-10-06T03:00:26.795Z,102421.31
2023-10-06T03:03:03.496Z,102423.25
2023-10-06T03:05:34.526Z,102426.69
2023-10-06T03:08:10.997Z,102418.78
2023-10-06T03:10:46.172Z,102415.22
2023-10-06T03:13:16.168Z,102408.25
2023-10-06T03:15:50.076Z,102399.56
2023-10-06T03:18:20.214Z,102405.63
2023-10-06T03:21:00.397Z,102397.06
2023-10-06T03:23:33.384Z,102403.13
2023-10-06T03:26:03.735Z,102408.41
2023-10-06T03:28:44.624Z,102407.72
2023-10-06T03:31:32.349Z,102405.09
2023-10-06T03:33:58.755Z,102408.53
2023-10-06T03:36:48.332Z,102402.47
2023-10-06T03:39:25.553Z,102399.00
2023-10-06T03:41:57.305Z,102400.78
2023-10-06T03:44:31.493Z,102400.78
2023-10-06T03:47:04.498Z,102397.34
2023-10-06T03:49:34.988Z,102393.72
2023-10-06T03:52:06.745Z,102396.34
2023-10-06T03:54:37.547Z,102394.72
2023-10-06T03:57:07.943Z,102401.75
2023-10-06T03:59:40.303Z,102406.19
2023-10-06T04:04:54.164Z,102398.84
2023-10-06T04:07:24.908Z,102393.44
2023-10-06T04:09:54.055Z,102387.09
2023-10-06T04:12:22.882Z,102378.22
2023-10-06T04:14:49.311Z,102383.63
2023-10-06T04:17:20.329Z,102385.41
2023-10-06T04:19:52.729Z,102384.47
2023-10-06T04:22:27.622Z,102380.84
2023-10-06T04:24:54.060Z,102387.91
2023-10-06T04:27:25.651Z,102383.47
2023-10-06T04:29:54.804Z,102378.06
2023-10-06T04:32:29.079Z,102376.56
2023-10-06T04:34:55.707Z,102372.81
2023-10-06T04:37:23.210Z,102371.69
2023-10-06T04:39:52.804Z,102371.69
2023-10-06T04:42:19.826Z,102372.41
2023-10-06T04:44:54.118Z,102378.50
2023-10-06T04:47:24.090Z,102375.88
2023-10-06T04:49:56.853Z,102374.03
2023-10-06T04:52:28.757Z,102368.78
2023-10-06T05:00:28.182Z,102363.38
2023-10-06T05:02:54.661Z,102354.53
2023-10-06T05:05:27.243Z,102363.22
2023-10-06T05:07:57.909Z,102373.91
2023-10-06T05:10:26.731Z,102373.09
2023-10-06T05:12:56.163Z,102376.53
2023-10-06T05:15:25.228Z,102373.09
2023-10-06T05:17:58.027Z,102362.41
2023-10-06T05:20:34.698Z,102358.09
2023-10-06T05:23:14.236Z,102354.53
2023-10-06T05:25:46.157Z,102355.19
2023-10-06T05:28:15.362Z,102349.91
2023-10-06T05:30:45.740Z,102354.94
2023-10-06T05:33:12.404Z,102350.47
2023-10-06T05:35:42.349Z,102345.91
2023-10-06T05:38:14.322Z,102346.63
2023-10-06T05:40:45.390Z,102351.59
2023-10-06T05:43:18.622Z,102346.03
2023-10-06T05:45:56.488Z,102347.41
2023-10-06T05:48:34.959Z,102350.59
2023-10-06T05:51:10.292Z,102356.44
2023-10-06T05:53:44.307Z,102361.13
2023-10-06T05:56:16.436Z,102363.31
2023-10-06T05:58:44.588Z,102368.03
2023-10-06T06:01:21.864Z,102371.06
2023-10-06T06:03:49.052Z,102368.69
2023-10-06T06:06:17.020Z,102367.28
2023-10-06T06:08:49.565Z,102372.25
2023-10-06T06:11:19.447Z,102366.97
2023-10-06T06:13:58.910Z,102370.06
2023-10-06T06:16:33.163Z,102368.81
2023-10-06T06:19:05.071Z,102367.53
2023-10-06T06:21:31.776Z,102370.72
2023-10-06T06:23:58.955Z,102373.34
2023-10-06T06:26:29.186Z,102375.84
2023-10-06T06:28:55.670Z,102376.81
2023-10-06T06:31:25.306Z,102371.22
2023-10-06T06:33:57.910Z,102373.59
2023-10-06T06:36:24.948Z,102363.06
2023-10-06T06:38:54.890Z,102368.19
2023-10-06T06:41:22.651Z,102355.66
2023-10-06T06:43:49.422Z,102356.50
2023-10-06T06:46:18.349Z,102357.34
2023-10-06T06:48:48.176Z,102367.59
2023-10-06T06:51:19.891Z,102363.13
2023-10-06T06:53:49.278Z,102373.38
2023-10-06T06:56:25.722Z,102366.16
2023-10-06T06:58:57.351Z,102367.00
2023-10-06T07:01:34.496Z,102365.22
2023-10-06T07:04:07.145Z,102361.75
2023-10-06T07:06:36.686Z,102371.00
2023-10-06T07:09:11.104Z,102372.25
2023-10-06T07:11:37.666Z,102370.94
2023-10-06T07:14:04.801Z,102361.84
2023-10-06T07:16:35.639Z,102361.13
2023-10-06T07:19:02.044Z,102354.09
2023-10-06T07:21:29.432Z,102362.94
2023-10-06T07:24:02.889Z,102369.97
2023-10-06T07:26:30.408Z,102371.06
2023-10-06T07:29:00.658Z,102369.03
2023-10-06T07:31:30.206Z,102368.31
2023-10-06T07:34:01.292Z,102366.41
2023-10-06T07:36:31.830Z,102375.44
2023-10-06T07:38:58.948Z,102367.09
2023-10-06T07:41:28.486Z,102374.75
2023-10-06T07:43:55.766Z,102379.56
2023-10-06T07:46:22.363Z,102375.50
2023-10-06T07:48:52.100Z,102375.38
2023-10-06T07:51:18.602Z,102375.63
2023-10-06T07:53:45.072Z,102372.31
2023-10-06T07:56:13.362Z,102369.31
2023-10-06T07:58:42.963Z,102371.28
2023-10-06T08:01:11.784Z,102361.41
2023-10-06T08:03:45.821Z,102366.25
2023-10-06T08:06:13.071Z,102375.59
2023-10-06T08:08:42.756Z,102380.72
2023-10-06T08:11:10.456Z,102384.41
2023-10-06T08:16:21.148Z,102373.19
2023-10-06T08:18:47.675Z,102379.13
2023-10-06T08:21:14.231Z,102384.09
2023-10-06T08:23:40.740Z,102387.94
2023-10-06T08:26:10.722Z,102404.34
2023-10-06T08:28:41.806Z,102379.16
2023-10-06T08:31:18.359Z,102381.13
2023-10-06T08:33:46.721Z,102376.50
2023-10-06T08:36:22.996Z,102379.31
2023-10-06T08:38:51.676Z,102384.44
2023-10-06T08:41:39.263Z,102380.47
2023-10-06T08:44:08.620Z,102387.59
2023-10-06T08:46:41.814Z,102394.22
2023-10-06T08:49:08.886Z,102388.91
2023-10-06T08:51:38.145Z,102376.31
2023-10-06T08:54:14.741Z,102394.22
2023-10-06T08:56:44.341Z,102388.91
2023-10-06T08:59:16.390Z,102382.59
2023-10-06T09:01:46.710Z,102381.47
2023-10-06T09:04:17.564Z,102394.22
2023-10-06T09:07:18.474Z,102390.03
2023-10-06T09:09:45.049Z,102380.63
2023-10-06T09:12:25.012Z,102387.56
2023-10-06T09:15:02.381Z,102382.59
2023-10-06T09:17:38.548Z,102381.06
2023-10-06T09:20:13.408Z,102391.84
2023-10-06T09:22:51.486Z,102388.69
2023-10-06T09:25:22.546Z,102382.94
2023-10-06T09:27:50.125Z,102375.13
2023-10-06T09:30:23.897Z,102372.78
2023-10-06T09:33:06.375Z,102372.91
2023-10-06T09:35:33.381Z,102377.72
2023-10-06T09:38:15.040Z,102376.53
2023-10-06T09:40:43.710Z,102370.03
2023-10-06T09:43:22.485Z,102366.00
2023-10-06T09:45:53.353Z,102370.53
2023-10-06T09:48:28.801Z,102365.16
2023-10-06T09:51:02.711Z,102360.97
2023-10-06T09:53:31.578Z,102362.38
2023-10-06T09:56:07.434Z,102363.22
2023-10-06T09:58:40.496Z,102356.13
2023-10-06T10:01:07.742Z,102363.09
2023-10-06T10:03:38.684Z,102365.63
2023-10-06T10:06:09.664Z,102360.69
2023-10-06T10:08:37.706Z,102351.44
2023-10-06T10:11:31.719Z,102354.09
2023-10-06T10:14:26.737Z,102346.47
2023-10-06T10:17:15.312Z,102339.94
2023-10-06T10:22:32.608Z,102334.16
2023-10-06T10:27:40.147Z,102362.22
2023-10-06T10:30:16.247Z,102355.94
2023-10-06T10:32:46.459Z,102351.19
2023-10-06T10:35:19.069Z,102358.75
2023-10-06T10:38:07.901Z,102364.13
2023-10-06T10:40:48.721Z,102361.28
2023-10-06T10:43:20.053Z,102360.13
2023-10-06T10:45:49.496Z,102354.34
2023-10-06T10:48:17.170Z,102346.41
2023-10-06T10:51:12.781Z,102340.72
2023-10-06T10:53:48.595Z,102342.03
2023-10-06T10:56:35.339Z,102338.66
2023-10-06T10:59:03.573Z,102324.38
2023-10-06T11:01:39.750Z,102326.72
2023-10-06T11:04:33.314Z,102338.19
2023-10-06T11:07:16.238Z,102321.34
2023-10-06T11:09:48.146Z,102335.06
2023-10-06T11:12:25.604Z,102341.16
2023-10-06T11:20:34.925Z,102323.41
2023-10-06T11:23:04.675Z,102320.50
2023-10-06T11:25:34.171Z,102324.00
2023-10-06T11:28:06.004Z,102329.13
2023-10-06T11:30:39.881Z,102325.97
2023-10-06T11:33:14.892Z,102328.00
2023-10-06T11:35:42.415Z,102321.13
2023-10-06T11:38:20.628Z,102331.56
2023-10-06T11:43:34.946Z,102316.19
2023-10-06T11:46:06.515Z,102324.63
2023-10-06T11:48:37.261Z,102321.84
2023-10-06T11:51:09.130Z,102323.66
2023-10-06T11:53:46.249Z,102327.59
2023-10-06T11:56:15.234Z,102318.66
2023-10-06T11:58:48.693Z,102320.34
2023-10-06T12:01:41.903Z,102318.84
2023-10-06T12:04:36.178Z,102305.38
2023-10-06T12:07:24.978Z,102315.34
2023-10-06T12:10:07.147Z,102317.50
2023-10-06T12:12:36.417Z,102299.72
2023-10-06T12:15:03.762Z,102292.72
2023-10-06T12:17:37.604Z,102307.28
2023-10-06T12:20:08.172Z,102292.84
2023-10-06T12:22:42.887Z,102282.78
2023-10-06T12:25:13.736Z,102290.19
2023-10-06T12:27:45.025Z,102296.06
2023-10-06T12:33:13.812Z,102293.78
2023-10-06T12:35:50.560Z,102286.81
2023-10-06T12:38:42.927Z,102277.50
2023-10-06T12:41:13.337Z,102278.84
2023-10-06T12:43:39.987Z,102267.38
2023-10-06T12:46:12.089Z,102271.25
2023-10-06T12:48:39.940Z,102271.44
2023-10-06T12:51:19.079Z,102270.53
2023-10-06T12:53:49.336Z,102270.78
2023-10-06T12:56:18.735Z,102263.44
2023-10-06T12:58:45.249Z,102271.31
2023-10-06T13:01:14.588Z,102259.66
2023-10-06T13:03:44.131Z,102269.09
2023-10-06T13:08:57.329Z,102265.91
2023-10-06T13:11:28.858Z,102262.88
2023-10-06T13:13:57.879Z,102258.88
2023-10-06T13:16:25.011Z,102253.06
2023-10-06T13:18:55.121Z,102252.59
2023-10-06T13:21:27.466Z,102264.16
2023-10-06T13:24:02.289Z,102265.59
2023-10-06T13:26:40.529Z,102263.34
2023-10-06T13:29:10.563Z,102263.41
2023-10-06T13:31:38.248Z,102266.97
2023-10-06T13:34:12.824Z,102274.81
2023-10-06T13:36:42.407Z,102259.91
2023-10-06T13:41:55.238Z,102271.22
2023-10-06T13:44:25.158Z,102254.94
2023-10-06T13:46:53.321Z,102265.06
2023-10-06T13:49:25.001Z,102267.78
2023-10-06T13:51:51.472Z,102262.50
2023-10-06T13:54:21.490Z,102248.81
2023-10-06T13:56:51.525Z,102254.38
2023-10-06T13:59:26.885Z,102251.97
2023-10-06T14:01:53.924Z,102247.25
2023-10-06T14:07:16.465Z,102251.84
2023-10-06T14:09:42.849Z,102247.50
2023-10-06T14:12:18.838Z,102245.47
2023-10-06T14:14:47.858Z,102246.84
2023-10-06T14:20:24.761Z,102245.63
2023-10-06T14:23:04.051Z,102236.22
2023-10-06T14:28:19.875Z,102245.72
2023-10-06T14:30:52.331Z,102240.00
2023-10-06T14:33:48.890Z,102242.41
2023-10-06T14:36:15.479Z,102232.28
2023-10-06T14:41:41.551Z,102237.75
2023-10-06T14:44:28.775Z,102230.34
2023-10-06T14:46:59.816Z,102237.16
2023-10-06T14:54:53.263Z,102239.31
2023-10-06T14:57:23.114Z,102232.34
2023-10-06T14:59:54.101Z,102239.50
2023-10-06T15:02:25.882Z,102240.34
2023-10-06T15:04:52.664Z,102240.75
2023-10-06T15:07:22.571Z,102229.88
2023-10-06T15:09:50.520Z,102225.03
2023-10-06T15:12:18.378Z,102225.63
2023-10-06T15:14:46.012Z,102214.97
2023-10-06T15:17:12.931Z,102217.94
2023-10-06T15:19:39.473Z,102209.06
2023-10-06T15:22:29.275Z,102208.00
2023-10-06T15:24:58.626Z,102209.31
2023-10-06T15:30:06.029Z,102217.44
2023-10-06T15:32:32.510Z,102209.66
2023-10-06T15:35:02.222Z,102211.41
2023-10-06T15:37:32.299Z,102215.47
2023-10-06T15:39:59.417Z,102213.00
2023-10-06T15:42:26.659Z,102213.34
2023-10-06T15:45:01.367Z,102214.09
2023-10-06T15:47:30.624Z,102219.78
2023-10-06T15:50:10.763Z,102224.84
2023-10-06T15:52:50.112Z,102215.13
2023-10-06T15:55:17.056Z,102215.84
2023-10-06T15:57:47.582Z,102211.94
2023-10-06T16:00:18.567Z,102214.13
2023-10-06T16:08:18.143Z,102212.69
2023-10-06T16:10:44.651Z,102203.59
2023-10-06T16:13:14.658Z,102207.63
2023-10-06T16:15:55.206Z,102209.63
2023-10-06T16:18:30.701Z,102201.25
2023-10-06T16:21:00.903Z,102195.47
2023-10-06T16:23:27.962Z,102197.47
2023-10-06T16:25:54.766Z,102205.81
2023-10-06T16:28:30.671Z,102201.50
2023-10-06T16:31:04.698Z,102193.91
2023-10-06T16:33:37.215Z,102195.91
2023-10-06T16:36:13.981Z,102192.97
2023-10-06T16:38:42.058Z,102197.63
2023-10-06T16:41:15.828Z,102194.34
2023-10-06T16:43:42.721Z,102192.84
2023-10-06T16:46:09.245Z,102190.38
2023-10-06T16:48:41.341Z,102194.91
2023-10-06T16:51:16.651Z,102193.22
2023-10-06T16:53:43.187Z,102198.91
2023-10-06T16:56:09.936Z,102198.63
2023-10-06T16:58:39.728Z,102190.22
2023-10-06T17:01:09.383Z,102199.34
2023-10-06T17:03:36.220Z,102192.91
2023-10-06T17:06:05.357Z,102196.28
2023-10-06T17:08:32.006Z,102198.81
2023-10-06T17:11:13.099Z,102204.84
2023-10-06T17:13:39.657Z,102205.53
2023-10-06T17:16:10.442Z,102204.59
2023-10-06T17:18:37.592Z,102206.78
2023-10-06T17:21:12.992Z,102201.53
2023-10-06T17:23:39.949Z,102210.84
2023-10-06T17:26:10.084Z,102216.69
2023-10-06T17:28:36.666Z,102211.25
2023-10-06T17:31:03.248Z,102209.31
2023-10-06T17:33:30.166Z,102214.31
2023-10-06T17:36:04.137Z,102218.31
2023-10-06T17:38:30.766Z,102225.97
2023-10-06T17:41:04.123Z,102224.47
2023-10-06T17:43:34.363Z,102219.88
2023-10-06T17:46:05.188Z,102224.72
2023-10-06T17:48:31.734Z,102220.06
2023-10-06T17:50:58.651Z,102217.75
2023-10-06T17:53:27.725Z,102219.25
2023-10-06T17:56:00.511Z,102221.59
2023-10-06T17:58:30.087Z,102228.88
2023-10-06T18:00:59.501Z,102220.13
2023-10-06T18:03:29.110Z,102229.22
2023-10-06T18:05:55.984Z,102226.91
2023-10-06T18:08:22.466Z,102229.06
2023-10-06T18:10:49.195Z,102218.66
2023-10-06T18:13:25.798Z,102224.78
2023-10-06T18:16:06.683Z,102219.81
2023-10-06T18:18:33.742Z,102222.66
2023-10-06T18:21:04.439Z,102217.53
2023-10-06T18:23:34.375Z,102221.97
2023-10-06T18:26:14.640Z,102218.69
2023-10-06T18:28:44.217Z,102211.91
2023-10-06T18:31:13.135Z,102205.94
2023-10-06T18:33:39.764Z,102202.47
2023-10-06T18:36:12.321Z,102204.97
2023-10-06T18:38:39.171Z,102205.94
2023-10-06T18:41:12.482Z,102192.22
2023-10-06T18:43:42.541Z,102203.97
2023-10-06T18:46:12.910Z,102209.44
2023-10-06T18:48:42.158Z,102212.44
2023-10-06T18:51:08.885Z,102212.59
2023-10-06T18:53:37.744Z,102219.88
2023-10-06T18:56:08.312Z,102225.19
2023-10-06T18:58:37.394Z,102221.72
2023-10-06T19:01:05.461Z,102226.19
2023-10-06T19:03:32.060Z,102219.25
2023-10-06T19:06:00.112Z,102222.06
2023-10-06T19:08:29.269Z,102221.56
2023-10-06T19:10:55.853Z,102235.97
2023-10-06T19:13:22.628Z,102225.56
2023-10-06T19:15:59.530Z,102233.63
2023-10-06T19:18:28.214Z,102223.03
2023-10-06T19:21:03.367Z,102227.53
2023-10-06T19:23:36.236Z,102230.69
2023-10-06T19:26:07.447Z,102220.44
2023-10-06T19:28:45.321Z,102225.06
2023-10-06T19:31:14.576Z,102225.22
2023-10-06T19:33:48.500Z,102220.78
2023-10-06T19:36:20.712Z,102226.38
2023-10-06T19:38:53.121Z,102222.06
2023-10-06T19:41:29.588Z,102230.34
2023-10-06T19:43:56.150Z,102225.06
2023-10-06T19:46:26.235Z,102232.16
2023-10-06T19:48:56.268Z,102232.66
2023-10-06T19:51:26.622Z,102226.72
2023-10-06T19:53:55.832Z,102225.91
2023-10-06T19:56:28.607Z,102225.22
2023-10-06T19:58:55.642Z,102230.34
2023-10-06T20:01:26.296Z,102220.25
2023-10-06T20:03:56.995Z,102220.75
2023-10-06T20:06:23.515Z,102208.88
2023-10-06T20:08:50.083Z,102212.50
2023-10-06T20:11:25.048Z,102212.66
2023-10-06T20:13:51.756Z,102210.47
2023-10-06T20:19:05.125Z,102210.97
2023-10-06T20:21:31.539Z,102215.75
2023-10-06T20:23:58.323Z,102215.91
2023-10-06T20:26:29.483Z,102224.84
2023-10-06T20:28:56.353Z,102225.34
2023-10-06T20:31:23.210Z,102217.41
2023-10-06T20:33:52.756Z,102226.00
2023-10-06T20:36:19.231Z,102212.94
2023-10-06T20:38:45.626Z,102219.38
2023-10-06T20:41:16.026Z,102216.75
2023-10-06T20:43:45.528Z,102219.56
2023-10-06T20:46:12.051Z,102213.59
2023-10-06T20:48:41.112Z,102210.28
2023-10-06T20:51:18.032Z,102218.38
2023-10-06T20:53:46.896Z,102213.25
2023-10-06T20:56:14.973Z,102216.88
2023-10-06T20:58:44.704Z,102211.75
2023-10-06T21:01:14.142Z,102211.75
2023-10-06T21:03:40.624Z,102208.44
2023-10-06T21:06:09.319Z,102204.31
2023-10-06T21:08:36.637Z,102210.78
2023-10-06T21:11:03.110Z,102209.94
2023-10-06T21:13:32.076Z,102201.16
2023-10-06T21:16:01.636Z,102200.50
2023-10-06T21:18:30.661Z,102201.50
2023-10-06T21:20:57.203Z,102212.22
2023-10-06T21:23:23.698Z,102211.72
2023-10-06T21:25:54.695Z,102211.88
2023-10-06T21:28:23.584Z,102208.75
2023-10-06T21:30:51.306Z,102206.25
2023-10-06T21:33:20.800Z,102218.66
2023-10-06T21:35:50.753Z,102211.53
2023-10-06T21:38:17.311Z,102216.19
2023-10-06T21:40:47.346Z,102214.50
2023-10-06T21:43:16.955Z,102219.94
2023-10-06T21:45:46.330Z,102219.16
2023-10-06T21:48:15.648Z,102231.69
2023-10-06T21:50:51.700Z,102217.63
2023-10-06T21:53:21.194Z,102211.84
2023-10-06T21:55:49.874Z,102219.78
2023-10-06T21:58:22.604Z,102219.94
2023-10-06T22:00:59.608Z,102214.78
2023-10-06T22:03:30.085Z,102198.28
2023-10-06T22:06:00.831Z,102199.94
2023-10-06T22:08:27.368Z,102204.09
2023-10-06T22:11:04.404Z,102199.94
2023-10-06T22:13:32.941Z,102209.84
2023-10-06T22:16:03.914Z,102212.63
2023-10-06T22:18:33.263Z,102211.16
2023-10-06T22:21:02.881Z,102204.06
2023-10-06T22:23:35.111Z,102206.88
2023-10-06T22:26:01.618Z,102203.38
2023-10-06T22:28:31.061Z,102205.19
2023-10-06T22:31:04.868Z,102191.16
2023-10-06T22:33:34.879Z,102198.56
2023-10-06T22:36:04.880Z,102199.53
2023-10-06T22:41:20.016Z,102197.22
2023-10-06T22:43:46.522Z,102205.16
2023-10-06T22:46:13.014Z,102206.16
2023-10-06T22:48:44.643Z,102201.03
2023-10-06T22:51:14.698Z,102202.03
2023-10-06T22:53:52.406Z,102203.66
2023-10-06T22:56:19.083Z,102202.03
2023-10-06T22:58:54.849Z,102205.31
2023-10-06T23:01:21.413Z,102205.47
2023-10-06T23:03:51.127Z,102189.94
2023-10-06T23:06:18.502Z,102186.66
2023-10-06T23:08:44.983Z,102180.53
2023-10-06T23:11:22.298Z,102172.59
2023-10-06T23:16:47.326Z,102173.88
2023-10-06T23:19:23.259Z,102171.41
2023-10-06T23:21:49.674Z,102165.31
2023-10-06T23:29:45.659Z,102124.84
2023-10-06T23:32:12.332Z,102128.16
2023-10-06T23:34:39.204Z,102132.47
2023-10-06T23:37:07.882Z,102131.47
2023-10-06T23:39:38.476Z,102134.63
2023-10-06T23:42:10.634Z,102125.56
2023-10-06T23:44:39.984Z,102126.03
2023-10-06T23:47:13.774Z,102141.72
2023-10-06T23:49:41.462Z,102159.91
2023-10-06T23:52:27.950Z,102152.66
2023-10-06T23:57:55.963Z,102136.13
